Time;durP1;ratioP1;P1;durP2;ratioP2;P2;SDS_P1;SDS_P2;PMS_P1;PMS_P2;Temp;Humidity;BMP_temperature;BMP_pressure;BME280_temperature;BME280_humidity;BME280_pressure;Samples;Min_cycle;Max_cycle;Signal;HPM_P1;HPM_P2
2021/09/20 00:00:12;;;;;;;4.20;3.00;;;12.00;84.50;;;;;;5075373;28;20250;-86
2021/09/20 00:02:38;;;;;;;4.77;2.80;;;12.00;84.50;;;;;;5075433;28;20332;-86
2021/09/20 00:05:06;;;;;;;5.03;3.00;;;12.00;84.40;;;;;;5074084;28;20213;-86
2021/09/20 00:07:32;;;;;;;7.63;3.33;;;12.00;84.50;;;;;;5073901;28;20167;-86
2021/09/20 00:09:58;;;;;;;4.23;2.87;;;12.00;84.50;;;;;;5073330;28;20183;-86
2021/09/20 00:12:23;;;;;;;6.73;3.10;;;12.00;84.70;;;;;;5073868;28;20679;-86
2021/09/20 00:14:49;;;;;;;3.10;2.70;;;12.00;84.70;;;;;;5073836;28;20546;-86
2021/09/20 00:17:15;;;;;;;5.10;3.00;;;12.00;84.70;;;;;;5075051;28;20164;-86
2021/09/20 00:19:40;;;;;;;3.33;2.57;;;11.90;84.70;;;;;;5073697;28;20202;-86
2021/09/20 00:22:06;;;;;;;6.10;3.50;;;12.00;84.70;;;;;;5075210;28;20675;-86
2021/09/20 00:24:32;;;;;;;3.83;3.07;;;12.00;84.50;;;;;;5075217;28;20639;-86
2021/09/20 00:26:58;;;;;;;9.40;3.13;;;12.00;84.30;;;;;;5073576;28;20639;-86
2021/09/20 00:29:23;;;;;;;7.57;3.07;;;12.00;84.60;;;;;;5074845;28;20171;-86
2021/09/20 00:31:49;;;;;;;5.13;2.93;;;12.00;84.60;;;;;;5073461;28;20542;-86
2021/09/20 00:34:14;;;;;;;3.70;3.07;;;11.90;85.00;;;;;;5074300;28;20175;-86
2021/09/20 00:36:40;;;;;;;6.13;3.67;;;11.90;84.60;;;;;;5075018;28;20659;-86
2021/09/20 00:39:06;;;;;;;8.60;3.23;;;11.90;84.70;;;;;;5073324;28;20679;-86
2021/09/20 00:41:32;;;;;;;4.20;3.10;;;11.90;84.70;;;;;;5073829;28;20630;-86
2021/09/20 00:43:57;;;;;;;9.20;3.47;;;11.90;84.80;;;;;;5073228;28;20176;-86
2021/09/20 00:46:23;;;;;;;4.87;2.93;;;11.90;85.10;;;;;;5073266;28;20521;-86
2021/09/20 00:48:49;;;;;;;5.87;2.83;;;11.90;85.30;;;;;;5073435;28;20522;-86
2021/09/20 00:51:14;;;;;;;5.10;3.33;;;11.80;85.30;;;;;;5073054;28;20195;-86
2021/09/20 00:53:40;;;;;;;4.80;2.97;;;11.80;85.50;;;;;;5074252;28;20167;-86
2021/09/20 00:56:06;;;;;;;4.80;2.93;;;11.90;85.70;;;;;;5074771;28;20252;-86
2021/09/20 00:58:31;;;;;;;7.30;3.27;;;11.90;85.60;;;;;;5072907;28;20203;-86
2021/09/20 01:01:00;;;;;;;5.50;2.90;;;11.80;85.80;;;;;;5073080;28;20745;-86
2021/09/20 01:03:26;;;;;;;3.83;2.93;;;11.70;85.80;;;;;;5072760;28;20249;-86
2021/09/20 01:05:52;;;;;;;5.30;3.27;;;11.80;85.80;;;;;;5072910;28;20586;-86
2021/09/20 01:08:18;;;;;;;5.47;3.17;;;11.80;85.60;;;;;;5072909;28;20183;-86
2021/09/20 01:10:43;;;;;;;5.07;3.20;;;11.80;85.40;;;;;;5072732;28;20210;-85
2021/09/20 01:13:09;;;;;;;5.80;2.97;;;11.70;85.30;;;;;;5072633;28;20583;-86
2021/09/20 01:15:34;;;;;;;4.73;3.37;;;11.70;85.30;;;;;;5072692;28;20666;-86
2021/09/20 01:18:00;;;;;;;5.90;3.23;;;11.70;85.40;;;;;;5072428;28;20306;-86
2021/09/20 01:20:27;;;;;;;6.57;3.10;;;11.70;85.10;;;;;;5073670;28;20167;-86
2021/09/20 01:23:02;;;;;;;6.83;3.30;;;11.70;85.10;;;;;;5071795;28;20195;-86
2021/09/20 01:25:28;;;;;;;4.90;3.03;;;11.70;84.80;;;;;;5073673;28;20332;-85
2021/09/20 01:27:54;;;;;;;7.83;3.73;;;11.70;84.70;;;;;;5072430;28;20171;-86
2021/09/20 01:30:21;;;;;;;4.07;2.90;;;11.70;84.90;;;;;;5072351;28;20171;-86
2021/09/20 01:32:47;;;;;;;5.70;2.87;;;11.70;85.00;;;;;;5072305;28;20195;-86
2021/09/20 01:35:15;;;;;;;4.30;2.93;;;11.70;85.30;;;;;;5073443;28;20179;-86
2021/09/20 01:37:41;;;;;;;3.63;2.90;;;11.70;85.50;;;;;;5073732;28;20171;-86
2021/09/20 01:40:07;;;;;;;5.00;2.83;;;11.70;85.90;;;;;;5072233;28;20256;-86
2021/09/20 01:42:33;;;;;;;7.23;3.37;;;11.70;86.10;;;;;;5072254;28;20191;-86
2021/09/20 01:44:59;;;;;;;5.20;3.67;;;11.70;86.10;;;;;;5072160;28;20657;-86
2021/09/20 01:47:24;;;;;;;5.20;2.70;;;11.60;86.20;;;;;;5072232;28;20171;-86
2021/09/20 01:49:50;;;;;;;4.97;3.03;;;11.60;86.20;;;;;;5072183;28;20190;-86
2021/09/20 01:52:16;;;;;;;3.70;2.87;;;11.60;85.90;;;;;;5073255;28;20195;-86
2021/09/20 01:54:42;;;;;;;4.37;2.77;;;11.50;85.20;;;;;;5072100;28;20187;-86
2021/09/20 01:57:07;;;;;;;5.67;2.73;;;11.50;85.60;;;;;;5073360;28;20179;-86
2021/09/20 01:59:33;;;;;;;6.23;2.80;;;11.50;85.60;;;;;;5072027;28;20328;-86
2021/09/20 02:01:59;;;;;;;5.00;3.37;;;11.60;85.90;;;;;;5071980;28;20234;-85
2021/09/20 02:04:24;;;;;;;10.37;3.30;;;11.50;86.00;;;;;;5072030;28;20180;-86
2021/09/20 02:06:50;;;;;;;7.93;2.70;;;11.50;85.90;;;;;;5073227;28;20180;-86
2021/09/20 02:09:16;;;;;;;4.53;3.00;;;11.50;86.10;;;;;;5071834;28;20185;-86
2021/09/20 02:11:42;;;;;;;9.13;3.03;;;11.50;85.80;;;;;;5071884;28;20203;-85
2021/09/20 02:14:08;;;;;;;4.87;3.00;;;11.50;85.10;;;;;;5073133;28;20267;-86
2021/09/20 02:16:34;;;;;;;3.77;2.90;;;11.40;85.20;;;;;;5073150;28;20176;-85
2021/09/20 02:19:00;;;;;;;4.83;3.07;;;11.50;84.60;;;;;;5073001;28;20567;-86
2021/09/20 02:21:26;;;;;;;2.83;2.60;;;11.50;84.70;;;;;;5073017;28;20522;-85
2021/09/20 02:23:52;;;;;;;4.40;2.87;;;11.50;84.10;;;;;;5073016;28;20228;-86
2021/09/20 02:26:18;;;;;;;4.50;3.20;;;11.50;84.00;;;;;;5071754;28;20175;-86
2021/09/20 02:28:43;;;;;;;4.97;3.07;;;11.40;84.10;;;;;;5071772;28;20179;-86
2021/09/20 02:31:10;;;;;;;3.87;3.10;;;11.40;84.00;;;;;;5071654;28;20183;-86
2021/09/20 02:33:37;;;;;;;5.57;3.27;;;11.40;83.80;;;;;;5074917;28;20259;-86
2021/09/20 02:36:03;;;;;;;4.03;2.83;;;11.40;83.70;;;;;;5077003;28;20568;-86
2021/09/20 02:38:30;;;;;;;7.07;3.03;;;11.50;83.70;;;;;;5075718;28;20236;-86
2021/09/20 02:40:57;;;;;;;5.23;3.03;;;11.50;83.50;;;;;;5075555;28;20187;-86
2021/09/20 02:43:22;;;;;;;3.13;2.67;;;11.50;84.00;;;;;;5076764;28;20226;-86
2021/09/20 02:45:48;;;;;;;4.50;3.07;;;11.40;83.90;;;;;;5075444;28;20260;-86
2021/09/20 02:48:14;;;;;;;5.43;3.00;;;11.40;84.10;;;;;;5076734;28;20176;-86
2021/09/20 02:50:40;;;;;;;4.47;2.73;;;11.40;83.90;;;;;;5076751;28;20263;-86
2021/09/20 02:53:06;;;;;;;7.90;3.50;;;11.40;84.30;;;;;;5075336;28;20290;-86
2021/09/20 02:55:32;;;;;;;4.00;2.90;;;11.40;84.20;;;;;;5076568;28;20258;-86
2021/09/20 02:57:58;;;;;;;5.50;2.70;;;11.40;84.20;;;;;;5076519;28;20175;-86
2021/09/20 03:00:24;;;;;;;3.77;2.90;;;11.30;84.30;;;;;;5075133;28;20248;-86
2021/09/20 03:02:50;;;;;;;6.03;2.80;;;11.40;83.80;;;;;;5075122;28;20667;-86
2021/09/20 03:05:16;;;;;;;6.73;2.93;;;11.40;83.50;;;;;;5075049;28;20200;-86
2021/09/20 03:07:41;;;;;;;4.67;2.90;;;11.40;83.90;;;;;;5076483;28;20300;-86
2021/09/20 03:10:08;;;;;;;3.83;2.77;;;11.40;84.60;;;;;;5076341;28;20179;-86
2021/09/20 03:12:33;;;;;;;4.17;3.20;;;11.40;84.80;;;;;;5074990;28;20203;-86
2021/09/20 03:14:59;;;;;;;3.50;3.20;;;11.30;84.90;;;;;;5076345;28;20543;-86
2021/09/20 03:17:25;;;;;;;3.83;3.20;;;11.30;84.80;;;;;;5075022;28;20313;-85
2021/09/20 03:19:51;;;;;;;6.70;3.43;;;11.30;85.10;;;;;;5074890;28;20671;-86
2021/09/20 03:22:16;;;;;;;4.67;2.83;;;11.30;85.50;;;;;;5074806;28;20689;-86
2021/09/20 03:24:42;;;;;;;5.53;3.00;;;11.30;85.30;;;;;;5076118;28;20698;-86
2021/09/20 03:27:08;;;;;;;3.20;2.90;;;11.30;84.90;;;;;;5075084;28;20268;-86
2021/09/20 03:29:34;;;;;;;3.80;2.97;;;11.30;84.90;;;;;;5074699;28;20179;-86
2021/09/20 03:32:00;;;;;;;5.83;2.90;;;11.30;84.80;;;;;;5075892;28;20566;-85
2021/09/20 03:34:26;;;;;;;6.60;3.20;;;11.30;85.40;;;;;;5074611;28;20197;-85
2021/09/20 03:36:51;;;;;;;3.63;2.93;;;11.30;85.10;;;;;;5076012;28;20168;-86
2021/09/20 03:39:17;;;;;;;3.57;3.20;;;11.30;85.30;;;;;;5074596;28;20203;-86
2021/09/20 03:41:43;;;;;;;9.70;3.47;;;11.30;85.50;;;;;;5075777;28;20223;-86
2021/09/20 03:44:09;;;;;;;3.60;2.90;;;11.30;85.50;;;;;;5074982;28;20171;-86
2021/09/20 03:46:34;;;;;;;4.00;2.97;;;11.20;85.80;;;;;;5074114;28;20186;-86
2021/09/20 03:49:00;;;;;;;4.93;2.80;;;11.20;85.70;;;;;;5074472;28;20631;-86
2021/09/20 03:51:26;;;;;;;4.83;3.20;;;11.20;85.60;;;;;;5075535;28;20175;-86
2021/09/20 03:53:52;;;;;;;5.90;3.13;;;11.20;85.70;;;;;;5074408;28;20183;-86
2021/09/20 03:56:17;;;;;;;6.00;3.33;;;11.20;85.60;;;;;;5074266;28;20524;-85
2021/09/20 03:58:43;;;;;;;5.77;3.60;;;11.20;85.40;;;;;;5074124;28;20209;-86
2021/09/20 04:01:09;;;;;;;6.13;3.37;;;11.20;85.50;;;;;;5075390;28;20539;-86
2021/09/20 04:03:34;;;;;;;3.67;2.93;;;11.20;85.20;;;;;;5074096;28;20233;-85
2021/09/20 04:06:00;;;;;;;7.77;3.53;;;11.10;85.40;;;;;;5075411;28;20217;-86
2021/09/20 04:08:29;;;;;;;6.97;3.07;;;11.10;85.70;;;;;;5075298;28;20179;-86
2021/09/20 04:10:56;;;;;;;4.40;3.00;;;11.20;85.70;;;;;;5074120;28;20183;-86
2021/09/20 04:13:22;;;;;;;4.97;3.70;;;11.20;85.70;;;;;;5075116;28;20199;-86
2021/09/20 04:15:53;;;;;;;7.37;4.30;;;11.10;85.90;;;;;;5075144;28;20190;-86
2021/09/20 04:18:19;;;;;;;5.20;3.73;;;11.10;86.20;;;;;;5073894;28;20581;-86
2021/09/20 04:20:45;;;;;;;6.53;3.90;;;11.10;86.10;;;;;;5073785;28;20178;-86
2021/09/20 04:23:10;;;;;;;4.67;3.50;;;11.10;86.00;;;;;;5073612;28;20195;-86
2021/09/20 04:25:36;;;;;;;7.23;3.93;;;11.10;85.80;;;;;;5073770;28;20230;-86
2021/09/20 04:28:02;;;;;;;5.90;3.77;;;11.10;85.80;;;;;;5074866;28;20632;-86
2021/09/20 04:30:27;;;;;;;6.50;3.50;;;11.10;86.20;;;;;;5073683;28;20182;-86
2021/09/20 04:32:53;;;;;;;5.90;4.00;;;11.10;86.20;;;;;;5073495;28;20218;-86
2021/09/20 04:35:19;;;;;;;8.17;3.67;;;11.10;85.70;;;;;;5073426;28;20683;-86
2021/09/20 04:37:44;;;;;;;6.57;4.00;;;11.10;85.40;;;;;;5073479;28;20176;-86
2021/09/20 04:40:11;;;;;;;7.07;3.87;;;11.10;85.50;;;;;;5073276;28;20203;-86
2021/09/20 04:42:36;;;;;;;6.47;4.00;;;11.10;85.10;;;;;;5074875;28;20195;-86
2021/09/20 04:45:02;;;;;;;4.87;3.50;;;11.10;85.10;;;;;;5073309;28;20186;-86
2021/09/20 04:47:28;;;;;;;6.03;3.63;;;11.20;85.10;;;;;;5073189;28;20190;-86
2021/09/20 04:49:54;;;;;;;5.27;4.10;;;11.20;85.20;;;;;;5073242;28;20183;-86
2021/09/20 04:52:19;;;;;;;5.03;3.63;;;11.20;85.50;;;;;;5074334;28;20218;-86
2021/09/20 04:54:45;;;;;;;10.40;4.20;;;11.20;85.90;;;;;;5073086;28;20683;-86
2021/09/20 04:57:11;;;;;;;9.57;4.10;;;11.20;86.00;;;;;;5072757;28;20179;-86
2021/09/20 04:59:36;;;;;;;7.70;3.43;;;11.20;86.30;;;;;;5074157;28;20199;-86
2021/09/20 05:02:02;;;;;;;5.70;3.53;;;11.20;86.40;;;;;;5072938;28;20659;-86
2021/09/20 05:04:28;;;;;;;6.93;3.80;;;11.20;86.40;;;;;;5072915;28;20243;-86
2021/09/20 05:06:54;;;;;;;5.13;3.50;;;11.10;86.50;;;;;;5073235;28;20203;-86
2021/09/20 05:09:20;;;;;;;4.23;3.83;;;11.20;86.50;;;;;;5072793;28;20666;-86
2021/09/20 05:11:46;;;;;;;4.10;3.13;;;11.20;86.60;;;;;;5072631;28;20203;-86
2021/09/20 05:14:11;;;;;;;6.27;3.83;;;11.20;86.20;;;;;;5072802;28;20189;-86
2021/09/20 05:16:37;;;;;;;9.77;3.63;;;11.20;86.20;;;;;;5073876;28;20182;-86
2021/09/20 05:19:03;;;;;;;7.37;3.83;;;11.20;86.40;;;;;;5073798;28;20199;-86
2021/09/20 05:21:28;;;;;;;7.63;3.70;;;11.20;86.60;;;;;;5074020;28;20246;-86
2021/09/20 05:23:54;;;;;;;3.97;3.43;;;11.20;86.60;;;;;;5072607;28;20172;-87
2021/09/20 05:26:20;;;;;;;8.93;3.93;;;11.20;86.70;;;;;;5072467;28;20240;-86
2021/09/20 05:28:46;;;;;;;4.33;3.80;;;11.20;86.60;;;;;;5072449;28;20179;-86
2021/09/20 05:31:12;;;;;;;5.33;4.17;;;11.20;86.80;;;;;;5073700;28;20182;-86
2021/09/20 05:33:37;;;;;;;6.27;3.70;;;11.20;86.90;;;;;;5073586;28;20195;-86
2021/09/20 05:36:05;;;;;;;4.17;3.50;;;11.20;86.60;;;;;;5072733;28;20286;-86
2021/09/20 05:38:32;;;;;;;4.23;3.30;;;11.20;86.70;;;;;;5073407;28;20199;-86
2021/09/20 05:40:58;;;;;;;6.63;3.50;;;11.20;86.80;;;;;;5072303;28;20207;-86
2021/09/20 05:43:24;;;;;;;6.93;3.70;;;11.20;86.20;;;;;;5072239;28;20257;-86
2021/09/20 05:45:50;;;;;;;3.50;3.20;;;11.20;86.00;;;;;;5072185;28;20244;-86
2021/09/20 05:48:18;;;;;;;7.10;3.93;;;11.20;85.80;;;;;;5073557;28;20203;-86
2021/09/20 05:50:44;;;;;;;6.13;3.27;;;11.20;85.90;;;;;;5073391;28;20666;-86
2021/09/20 05:53:11;;;;;;;8.53;3.57;;;11.20;85.80;;;;;;5073342;28;20195;-86
2021/09/20 05:55:36;;;;;;;4.17;3.33;;;11.20;86.00;;;;;;5073430;28;20179;-86
2021/09/20 05:58:02;;;;;;;4.70;3.60;;;11.20;85.80;;;;;;5071972;28;20182;-86
2021/09/20 06:00:28;;;;;;;4.50;3.90;;;11.20;85.90;;;;;;5072034;28;20232;-86
2021/09/20 06:02:54;;;;;;;5.67;3.53;;;11.20;85.60;;;;;;5071982;28;20196;-86
2021/09/20 06:05:20;;;;;;;6.20;3.13;;;11.20;85.60;;;;;;5072044;28;20176;-86
2021/09/20 06:07:46;;;;;;;7.73;3.50;;;11.30;86.10;;;;;;5072874;28;20171;-86
2021/09/20 06:10:13;;;;;;;4.80;3.77;;;11.20;86.30;;;;;;5071861;28;20202;-86
2021/09/20 06:12:39;;;;;;;12.40;3.80;;;11.30;86.20;;;;;;5071965;28;20215;-86
2021/09/20 06:15:06;;;;;;;6.83;4.00;;;11.20;86.10;;;;;;5071857;28;20183;-86
2021/09/20 06:17:33;;;;;;;9.40;3.40;;;11.30;86.20;;;;;;5072120;28;20567;-86
2021/09/20 06:19:58;;;;;;;4.10;3.43;;;11.20;86.50;;;;;;5071624;28;20583;-86
2021/09/20 06:22:24;;;;;;;7.50;3.60;;;11.20;86.80;;;;;;5072898;28;20191;-86
2021/09/20 06:24:50;;;;;;;6.83;4.13;;;11.20;86.40;;;;;;5071728;28;20528;-86
2021/09/20 06:27:15;;;;;;;5.43;3.47;;;11.20;86.60;;;;;;5072721;28;20171;-86
2021/09/20 06:29:41;;;;;;;9.37;3.40;;;11.20;86.70;;;;;;5071754;28;20175;-86
2021/09/20 06:32:07;;;;;;;4.80;3.87;;;11.30;86.30;;;;;;5073011;28;20191;-86
2021/09/20 06:34:33;;;;;;;6.47;3.50;;;11.30;86.20;;;;;;5071602;28;20229;-86
2021/09/20 06:36:59;;;;;;;5.40;4.03;;;11.30;86.30;;;;;;5072879;28;20643;-86
2021/09/20 06:39:25;;;;;;;5.57;3.60;;;11.30;86.60;;;;;;5071601;28;20687;-86
2021/09/20 06:41:51;;;;;;;3.97;3.60;;;11.30;86.60;;;;;;5073079;28;20211;-86
2021/09/20 06:44:17;;;;;;;6.80;3.50;;;11.30;86.60;;;;;;5073161;28;20628;-86
2021/09/20 06:46:45;;;;;;;5.27;4.00;;;11.40;86.20;;;;;;5071564;28;20186;-86
2021/09/20 06:49:10;;;;;;;6.13;3.67;;;11.40;86.30;;;;;;5073075;28;20306;-86
2021/09/20 06:51:36;;;;;;;9.10;4.17;;;11.50;86.30;;;;;;5071457;28;20297;-85
2021/09/20 06:54:02;;;;;;;9.73;4.20;;;11.50;86.40;;;;;;5072728;28;20180;-86
2021/09/20 06:56:28;;;;;;;8.67;4.40;;;11.50;86.70;;;;;;5072704;28;20749;-86
2021/09/20 06:58:53;;;;;;;6.90;4.10;;;11.50;86.70;;;;;;5072862;28;20293;-86
2021/09/20 07:01:19;;;;;;;5.73;4.30;;;11.60;86.40;;;;;;5071795;28;20325;-86
2021/09/20 07:03:45;;;;;;;8.03;4.07;;;11.60;86.50;;;;;;5071412;28;20270;-86
2021/09/20 07:06:10;;;;;;;5.87;3.93;;;11.60;85.90;;;;;;5071488;28;20182;-86
2021/09/20 07:08:36;;;;;;;7.30;3.97;;;11.60;85.70;;;;;;5071404;28;20179;-85
2021/09/20 07:11:02;;;;;;;6.80;3.90;;;11.70;85.00;;;;;;5071411;28;20716;-85
2021/09/20 07:13:28;;;;;;;8.37;4.30;;;11.70;85.10;;;;;;5071239;28;20207;-86
2021/09/20 07:15:54;;;;;;;6.77;3.70;;;11.70;84.90;;;;;;5072518;28;20175;-85
2021/09/20 07:18:19;;;;;;;6.27;4.03;;;11.80;84.20;;;;;;5072410;28;20207;-85
2021/09/20 07:20:46;;;;;;;8.83;4.27;;;11.80;84.30;;;;;;5074901;28;20183;-85
2021/09/20 07:23:13;;;;;;;5.33;4.07;;;11.80;84.40;;;;;;5074746;28;20679;-85
2021/09/20 07:25:39;;;;;;;9.20;4.60;;;11.80;83.40;;;;;;5076033;28;20665;-86
2021/09/20 07:28:05;;;;;;;5.43;3.60;;;11.80;84.00;;;;;;5076074;28;20175;-86
2021/09/20 07:30:31;;;;;;;6.70;4.10;;;11.90;83.70;;;;;;5074669;28;20720;-86
2021/09/20 07:32:57;;;;;;;6.57;4.03;;;11.80;83.70;;;;;;5074582;28;20195;-86
2021/09/20 07:35:23;;;;;;;5.90;4.23;;;11.90;83.50;;;;;;5074698;28;20191;-86
2021/09/20 07:37:54;;;;;;;4.90;3.73;;;11.90;83.40;;;;;;5074703;28;20206;-86
2021/09/20 07:40:22;;;;;;;8.67;4.20;;;11.90;83.20;;;;;;5074523;28;20255;-86
2021/09/20 07:42:49;;;;;;;4.73;4.20;;;12.00;83.70;;;;;;5074268;28;20199;-86
2021/09/20 07:45:14;;;;;;;5.70;4.20;;;12.00;83.30;;;;;;5074452;28;20179;-86
2021/09/20 07:47:40;;;;;;;5.63;3.93;;;12.10;83.20;;;;;;5074312;28;20178;-86
2021/09/20 07:50:08;;;;;;;8.20;4.10;;;12.00;82.70;;;;;;5075590;28;20175;-86
2021/09/20 07:52:34;;;;;;;4.10;3.70;;;12.10;82.70;;;;;;5075547;28;20679;-86
2021/09/20 07:54:59;;;;;;;8.00;4.50;;;12.10;81.80;;;;;;5075578;28;20176;-86
2021/09/20 07:57:26;;;;;;;6.13;4.23;;;12.10;82.40;;;;;;5074227;28;20214;-86
2021/09/20 07:59:52;;;;;;;4.53;4.03;;;12.20;83.10;;;;;;5074120;28;20207;-86
2021/09/20 08:02:18;;;;;;;6.23;4.07;;;12.20;82.10;;;;;;5074037;28;20286;-86
2021/09/20 08:04:45;;;;;;;5.03;4.20;;;12.20;82.10;;;;;;5074074;28;20267;-86
2021/09/20 08:07:12;;;;;;;7.60;3.50;;;12.30;82.30;;;;;;5074089;28;20176;-86
2021/09/20 08:09:37;;;;;;;6.07;4.23;;;12.30;81.80;;;;;;5073930;28;20179;-86
2021/09/20 08:12:03;;;;;;;4.93;4.23;;;12.30;81.40;;;;;;5073914;28;20248;-86
2021/09/20 08:14:29;;;;;;;7.50;4.37;;;12.40;81.70;;;;;;5075082;28;20174;-86
2021/09/20 08:16:55;;;;;;;6.50;4.17;;;12.40;82.20;;;;;;5073779;28;20179;-86
2021/09/20 08:19:21;;;;;;;6.00;3.87;;;12.50;82.30;;;;;;5074966;28;20195;-86
2021/09/20 08:21:48;;;;;;;5.63;3.93;;;12.50;81.90;;;;;;5073663;28;20206;-86
2021/09/20 08:24:14;;;;;;;6.33;4.73;;;12.50;81.40;;;;;;5075324;28;20179;-86
2021/09/20 08:26:40;;;;;;;9.87;4.70;;;12.60;81.70;;;;;;5073752;28;20228;-86
2021/09/20 08:29:06;;;;;;;6.90;4.30;;;12.60;81.00;;;;;;5073852;28;20247;-87
2021/09/20 08:31:32;;;;;;;5.23;4.40;;;12.60;80.00;;;;;;5073216;28;20197;-86
2021/09/20 08:33:57;;;;;;;6.87;4.50;;;12.70;81.00;;;;;;5073758;28;20183;-86
2021/09/20 08:36:23;;;;;;;7.80;4.67;;;12.70;80.90;;;;;;5074595;28;20191;-86
2021/09/20 08:38:49;;;;;;;5.30;3.90;;;12.70;80.40;;;;;;5074573;28;20237;-86
2021/09/20 08:41:16;;;;;;;5.90;4.60;;;12.70;80.40;;;;;;5073349;28;20179;-86
2021/09/20 08:43:42;;;;;;;6.23;4.20;;;12.70;80.30;;;;;;5073284;28;20206;-86
2021/09/20 08:46:08;;;;;;;6.90;4.67;;;12.80;80.90;;;;;;5073330;28;20182;-86
2021/09/20 08:48:52;;;;;;;5.33;4.03;;;12.80;80.80;;;;;;5074376;28;20217;-86
2021/09/20 08:51:19;;;;;;;6.37;4.33;;;12.80;80.30;;;;;;5074980;28;20163;-87
2021/09/20 08:53:47;;;;;;;8.03;4.33;;;12.80;80.50;;;;;;5073463;28;20222;-87
2021/09/20 08:56:13;;;;;;;5.90;4.13;;;12.80;80.20;;;;;;5074382;28;20205;-86
2021/09/20 08:58:40;;;;;;;6.03;4.27;;;12.90;79.70;;;;;;5073409;28;20257;-87
2021/09/20 09:01:06;;;;;;;12.27;5.00;;;12.90;80.10;;;;;;5073231;28;20182;-86
2021/09/20 09:03:32;;;;;;;5.37;4.13;;;12.90;79.60;;;;;;5074705;28;20596;-87
2021/09/20 09:05:58;;;;;;;4.80;4.40;;;13.00;80.30;;;;;;5073785;28;20171;-87
2021/09/20 09:08:33;;;;;;;5.53;4.17;;;13.00;80.30;;;;;;5073869;28;20179;-87
2021/09/20 09:11:04;;;;;;;5.87;4.40;;;13.10;79.10;;;;;;5074890;28;20174;-87
2021/09/20 09:13:39;;;;;;;6.10;4.30;;;13.10;78.70;;;;;;5073981;28;20282;-87
2021/09/20 09:16:18;;;;;;;4.10;3.70;;;13.10;78.40;;;;;;5075332;28;20167;-87
2021/09/20 09:19:06;;;;;;;4.47;3.77;;;13.10;77.70;;;;;;5075128;28;20191;-87
2021/09/20 09:21:37;;;;;;;5.30;4.00;;;13.20;78.00;;;;;;5075314;28;20242;-87
2021/09/20 09:24:10;;;;;;;6.07;3.63;;;13.20;77.80;;;;;;5074315;28;20210;-86
2021/09/20 09:26:37;;;;;;;4.83;3.50;;;13.30;77.20;;;;;;5075120;28;20159;-87
2021/09/20 09:29:21;;;;;;;5.90;3.37;;;13.30;76.60;;;;;;5074348;28;20277;-87
2021/09/20 09:31:55;;;;;;;3.83;3.53;;;13.30;75.80;;;;;;5074942;28;20202;-86
2021/09/20 09:34:22;;;;;;;6.40;3.87;;;13.30;75.90;;;;;;5073541;28;20194;-87
2021/09/20 09:37:06;;;;;;;9.97;3.97;;;13.40;75.30;;;;;;5073492;28;20171;-87
2021/09/20 09:39:32;;;;;;;7.70;3.87;;;13.40;76.10;;;;;;5073311;28;20195;-87
2021/09/20 09:41:58;;;;;;;7.53;3.00;;;13.50;76.60;;;;;;5075926;28;20199;-86
2021/09/20 09:44:31;;;;;;;5.23;3.37;;;13.40;73.80;;;;;;5074525;28;20175;-85
2021/09/20 09:46:58;;;;;;;5.90;3.53;;;13.50;73.60;;;;;;5075145;28;20615;-87
2021/09/20 09:49:25;;;;;;;4.80;2.93;;;13.50;72.80;;;;;;5075334;28;20179;-87
2021/09/20 09:52:04;;;;;;;4.73;2.93;;;13.50;72.40;;;;;;5074289;28;20195;-87
2021/09/20 09:54:37;;;;;;;8.13;3.50;;;13.50;73.20;;;;;;5073427;28;20167;-86
2021/09/20 09:57:16;;;;;;;3.73;2.67;;;13.60;72.90;;;;;;5075488;28;20168;-87
2021/09/20 09:59:43;;;;;;;4.30;3.03;;;13.60;72.00;;;;;;5074374;28;20199;-86
2021/09/20 10:02:16;;;;;;;4.20;2.97;;;13.60;71.60;;;;;;5078206;28;20198;-86
2021/09/20 10:04:55;;;;;;;6.10;3.10;;;13.60;71.30;;;;;;5077930;28;20167;-87
2021/09/20 10:07:26;;;;;;;4.30;3.07;;;13.50;70.60;;;;;;5074219;28;20159;-87
2021/09/20 10:09:53;;;;;;;3.33;3.03;;;13.50;71.20;;;;;;5074548;28;20175;-87
2021/09/20 10:12:22;;;;;;;8.00;3.17;;;13.60;71.70;;;;;;5074480;28;20199;-86
2021/09/20 10:14:49;;;;;;;6.27;2.87;;;13.60;72.20;;;;;;5076207;28;20175;-86
2021/09/20 10:17:18;;;;;;;6.67;3.17;;;13.50;70.00;;;;;;5075020;28;20179;-86
2021/09/20 10:19:44;;;;;;;4.00;3.57;;;13.50;70.80;;;;;;5075200;28;20646;-86
2021/09/20 10:22:13;;;;;;;2.97;2.60;;;13.60;72.00;;;;;;5075146;28;20666;-86
2021/09/20 10:24:45;;;;;;;5.27;3.10;;;13.60;70.60;;;;;;5073398;28;20185;-87
2021/09/20 10:27:15;;;;;;;4.57;2.80;;;13.60;70.80;;;;;;5075583;28;20528;-86
2021/09/20 10:29:45;;;;;;;5.10;2.53;;;13.60;70.80;;;;;;5075863;28;20171;-86
2021/09/20 10:32:11;;;;;;;9.50;2.87;;;13.50;70.70;;;;;;5075837;28;20602;-86
2021/09/20 10:34:37;;;;;;;5.80;2.90;;;13.60;70.40;;;;;;5076627;28;20191;-86
2021/09/20 10:37:14;;;;;;;4.87;3.13;;;13.60;71.70;;;;;;5074342;28;20164;-87
2021/09/20 10:39:43;;;;;;;6.73;3.33;;;13.60;70.80;;;;;;5075792;28;20683;-86
2021/09/20 10:42:11;;;;;;;4.17;2.90;;;13.60;70.90;;;;;;5071824;28;20606;-85
2021/09/20 10:44:41;;;;;;;4.07;3.00;;;13.60;70.70;;;;;;5071772;28;20172;-87
2021/09/20 10:47:14;;;;;;;4.73;3.23;;;13.60;71.30;;;;;;5073015;28;20221;-85
2021/09/20 10:49:50;;;;;;;5.60;2.80;;;13.70;70.80;;;;;;5073075;28;20176;-87
2021/09/20 10:52:17;;;;;;;10.93;2.73;;;13.70;70.60;;;;;;5178629;22;20717;-89
2021/09/20 10:55:09;;;;;;;4.03;2.77;;;13.70;71.10;;;;;;5074012;28;20183;-89
2021/09/20 10:57:36;;;;;;;5.47;3.17;;;13.60;70.10;;;;;;5076041;28;20168;-90
2021/09/20 11:00:21;;;;;;;3.10;2.60;;;13.70;70.10;;;;;;5077244;28;20240;-91
2021/09/20 11:02:47;;;;;;;5.70;2.77;;;13.70;69.50;;;;;;5077302;28;20186;-90
2021/09/20 11:05:13;;;;;;;4.77;3.10;;;13.70;69.80;;;;;;5075842;28;20175;-91
2021/09/20 11:07:50;;;;;;;11.50;3.47;;;13.70;69.80;;;;;;5075937;28;20217;-90
2021/09/20 11:10:28;;;;;;;4.17;2.40;;;13.70;68.50;;;;;;5077052;28;20160;-91
2021/09/20 11:13:05;;;;;;;2.80;2.57;;;13.70;68.30;;;;;;5075617;28;20202;-90
2021/09/20 11:15:39;;;;;;;6.07;2.60;;;13.80;68.60;;;;;;5075631;28;20263;-91
2021/09/20 11:18:06;;;;;;;3.77;2.53;;;13.80;68.70;;;;;;5075531;28;20182;-89
2021/09/20 11:20:41;;;;;;;4.43;2.80;;;13.80;69.30;;;;;;5075551;28;20203;-88
2021/09/20 11:23:14;;;;;;;3.50;2.70;;;13.80;68.10;;;;;;5076595;28;20183;-90
2021/09/20 11:25:40;;;;;;;4.33;2.70;;;13.80;69.70;;;;;;5075423;28;20577;-89
2021/09/20 11:28:07;;;;;;;8.10;3.30;;;13.80;69.40;;;;;;5075206;28;20174;-89
2021/09/20 11:30:33;;;;;;;4.73;2.50;;;13.90;67.30;;;;;;5076574;28;20163;-88
2021/09/20 11:33:10;;;;;;;5.03;2.43;;;13.90;68.40;;;;;;5074955;28;20191;-90
2021/09/20 11:35:36;;;;;;;3.73;2.57;;;14.00;67.70;;;;;;5075942;28;20533;-88
2021/09/20 11:38:04;;;;;;;3.10;2.30;;;14.10;66.50;;;;;;5075314;28;20198;-90
2021/09/20 11:40:32;;;;;;;2.93;2.57;;;14.00;66.20;;;;;;5074762;28;20661;-88
2021/09/20 11:43:04;;;;;;;3.30;2.20;;;14.20;67.10;;;;;;5076287;28;20274;-89
2021/09/20 11:45:36;;;;;;;2.57;2.17;;;14.20;65.70;;;;;;5076708;28;20164;-91
2021/09/20 11:48:05;;;;;;;4.70;2.50;;;14.10;66.80;;;;;;5076914;28;20196;-91
2021/09/20 11:50:41;;;;;;;2.53;2.13;;;14.10;65.10;;;;;;5075079;28;20175;-92
2021/09/20 11:53:13;;;;;;;2.40;2.13;;;14.20;66.80;;;;;;5075407;28;20260;-91
2021/09/20 11:55:43;;;;;;;3.40;2.27;;;14.20;66.00;;;;;;5077342;28;20239;-91
2021/09/20 11:58:12;;;;;;;3.87;2.03;;;14.30;68.40;;;;;;5076034;28;20182;-89
2021/09/20 12:00:40;;;;;;;3.77;2.13;;;14.20;65.90;;;;;;5074971;28;20206;-89
2021/09/20 12:03:09;;;;;;;2.90;2.20;;;14.30;65.60;;;;;;5075777;28;20187;-90
2021/09/20 12:05:38;;;;;;;10.37;2.40;;;14.30;65.10;;;;;;5074621;28;20176;-90
2021/09/20 12:08:19;;;;;;;3.57;2.53;;;14.30;64.90;;;;;;5074710;28;20186;-90
2021/09/20 12:10:51;;;;;;;5.00;2.70;;;14.40;66.70;;;;;;5075862;28;20163;-89
2021/09/20 12:13:21;;;;;;;4.70;2.60;;;14.40;67.00;;;;;;5074576;28;20191;-90
2021/09/20 12:15:48;;;;;;;2.67;2.40;;;14.40;66.60;;;;;;5074432;28;20584;-89
2021/09/20 12:18:19;;;;;;;5.17;2.13;;;14.40;64.90;;;;;;5074325;28;20197;-90
2021/09/20 12:21:13;;;;;;;2.37;1.87;;;14.30;64.70;;;;;;5074450;28;20255;-90
2021/09/20 12:23:43;;;;;;;5.50;2.43;;;14.30;64.00;;;;;;5073497;28;20190;-90
2021/09/20 12:26:14;;;;;;;5.20;2.30;;;14.30;63.80;;;;;;5074253;28;20550;-89
2021/09/20 12:29:05;;;;;;;3.80;2.57;;;14.30;62.70;;;;;;5075389;28;20203;-90
2021/09/20 12:31:31;;;;;;;4.37;2.60;;;14.20;67.00;;;;;;5073884;28;22005;-90
2021/09/20 12:33:57;;;;;;;3.03;2.33;;;14.30;66.90;;;;;;5074091;28;20203;-89
2021/09/20 12:36:34;;;;;;;2.43;2.23;;;14.30;64.90;;;;;;5074218;28;20204;-90
2021/09/20 12:39:17;;;;;;;2.13;1.93;;;14.20;64.10;;;;;;5074068;28;20187;-91
2021/09/20 12:42:01;;;;;;;4.57;2.47;;;14.20;62.60;;;;;;5073989;28;20191;-90
2021/09/20 12:44:44;;;;;;;4.90;2.40;;;14.30;63.80;;;;;;5074042;28;20243;-90
2021/09/20 12:47:25;;;;;;;2.23;2.03;;;14.20;65.30;;;;;;5073888;28;20539;-90